sensor_id;sensor_type;location;lat;lon;timestamp;P1;durP1;ratioP1;P2;durP2;ratioP2
85815;SDS011;76552;51.206;4.424;2024-03-06T00:00:01;20.47;;;15.63;;
85815;SDS011;76552;51.206;4.424;2024-03-06T00:00:09;21.07;;;15.47;;
85815;SDS011;76552;51.206;4.424;2024-03-06T00:00:15;20.50;;;15.50;;
85815;SDS011;76552;51.206;4.424;2024-03-06T00:00:21;20.65;;;15.25;;
85815;SDS011;76552;51.206;4.424;2024-03-06T00:00:27;20.85;;;15.25;;
85815;SDS011;76552;51.206;4.424;2024-03-06T00:00:33;21.20;;;15.02;;
85815;SDS011;76552;51.206;4.424;2024-03-06T00:00:38;21.60;;;15.17;;
85815;SDS011;76552;51.206;4.424;2024-03-06T00:00:43;21.70;;;15.10;;
85815;SDS011;76552;51.206;4.424;2024-03-06T00:00:49;22.23;;;15.10;;
85815;SDS011;76552;51.206;4.424;2024-03-06T00:00:54;21.47;;;14.63;;
85815;SDS011;76552;51.206;4.424;2024-03-06T00:00:59;22.37;;;14.63;;
85815;SDS011;76552;51.206;4.424;2024-03-06T00:01:05;20.73;;;14.63;;
85815;SDS011;76552;51.206;4.424;2024-03-06T00:01:10;20.90;;;14.60;;
85815;SDS011;76552;51.206;4.424;2024-03-06T00:01:15;19.52;;;14.32;;
85815;SDS011;76552;51.206;4.424;2024-03-06T00:01:21;19.27;;;14.10;;
85815;SDS011;76552;51.206;4.424;2024-03-06T00:01:26;19.47;;;14.33;;
85815;SDS011;76552;51.206;4.424;2024-03-06T00:01:31;19.23;;;14.50;;
85815;SDS011;76552;51.206;4.424;2024-03-06T00:01:37;19.63;;;14.57;;
85815;SDS011;76552;51.206;4.424;2024-03-06T00:01:42;19.70;;;14.50;;
85815;SDS011;76552;51.206;4.424;2024-03-06T00:01:47;20.58;;;14.70;;
85815;SDS011;76552;51.206;4.424;2024-03-06T00:01:53;20.50;;;14.87;;
85815;SDS011;76552;51.206;4.424;2024-03-06T00:01:58;20.03;;;14.57;;
85815;SDS011;76552;51.206;4.424;2024-03-06T00:02:03;19.83;;;14.50;;
85815;SDS011;76552;51.206;4.424;2024-03-06T00:02:09;18.77;;;14.30;;
85815;SDS011;76552;51.206;4.424;2024-03-06T00:02:14;18.83;;;14.37;;
85815;SDS011;76552;51.206;4.424;2024-03-06T00:02:19;18.55;;;14.43;;
85815;SDS011;76552;51.206;4.424;2024-03-06T00:02:25;18.87;;;14.23;;
85815;SDS011;76552;51.206;4.424;2024-03-06T00:02:30;18.93;;;14.30;;
85815;SDS011;76552;51.206;4.424;2024-03-06T00:02:35;18.93;;;14.23;;
85815;SDS011;76552;51.206;4.424;2024-03-06T00:02:41;19.00;;;13.88;;
85815;SDS011;76552;51.206;4.424;2024-03-06T00:02:46;18.97;;;13.70;;
85815;SDS011;76552;51.206;4.424;2024-03-06T00:02:51;18.92;;;13.68;;
85815;SDS011;76552;51.206;4.424;2024-03-06T00:02:57;18.43;;;13.67;;
85815;SDS011;76552;51.206;4.424;2024-03-06T00:03:02;18.30;;;13.70;;
85815;SDS011;76552;51.206;4.424;2024-03-06T00:03:08;18.65;;;13.73;;
85815;SDS011;76552;51.206;4.424;2024-03-06T00:03:13;18.40;;;13.97;;
85815;SDS011;76552;51.206;4.424;2024-03-06T00:03:18;18.85;;;13.90;;
85815;SDS011;76552;51.206;4.424;2024-03-06T00:03:24;19.53;;;13.80;;
85815;SDS011;76552;51.206;4.424;2024-03-06T00:03:29;20.07;;;13.77;;
85815;SDS011;76552;51.206;4.424;2024-03-06T00:03:34;19.90;;;13.57;;
85815;SDS011;76552;51.206;4.424;2024-03-06T00:03:39;20.37;;;13.70;;
85815;SDS011;76552;51.206;4.424;2024-03-06T00:03:45;20.67;;;13.80;;
85815;SDS011;76552;51.206;4.424;2024-03-06T00:03:50;19.93;;;13.87;;
85815;SDS011;76552;51.206;4.424;2024-03-06T00:03:55;19.75;;;13.98;;
85815;SDS011;76552;51.206;4.424;2024-03-06T00:04:03;19.43;;;14.17;;
85815;SDS011;76552;51.206;4.424;2024-03-06T00:04:08;19.35;;;14.37;;
85815;SDS011;76552;51.206;4.424;2024-03-06T00:04:14;18.77;;;14.30;;
85815;SDS011;76552;51.206;4.424;2024-03-06T00:04:19;18.67;;;14.33;;
85815;SDS011;76552;51.206;4.424;2024-03-06T00:04:24;18.40;;;14.18;;
85815;SDS011;76552;51.206;4.424;2024-03-06T00:04:29;18.57;;;14.10;;
85815;SDS011;76552;51.206;4.424;2024-03-06T00:04:35;18.70;;;13.87;;
85815;SDS011;76552;51.206;4.424;2024-03-06T00:04:40;19.17;;;13.83;;
85815;SDS011;76552;51.206;4.424;2024-03-06T00:04:45;19.77;;;13.93;;
85815;SDS011;76552;51.206;4.424;2024-03-06T00:04:51;19.37;;;13.73;;
85815;SDS011;76552;51.206;4.424;2024-03-06T00:04:56;19.40;;;13.70;;
85815;SDS011;76552;51.206;4.424;2024-03-06T00:05:02;19.50;;;13.82;;
85815;SDS011;76552;51.206;4.424;2024-03-06T00:05:07;19.58;;;13.85;;
85815;SDS011;76552;51.206;4.424;2024-03-06T00:05:13;19.30;;;13.80;;
85815;SDS011;76552;51.206;4.424;2024-03-06T00:05:18;19.17;;;13.90;;
85815;SDS011;76552;51.206;4.424;2024-03-06T00:05:23;19.60;;;14.10;;
85815;SDS011;76552;51.206;4.424;2024-03-06T00:05:29;19.40;;;14.13;;
85815;SDS011;76552;51.206;4.424;2024-03-06T00:05:34;19.50;;;14.07;;
85815;SDS011;76552;51.206;4.424;2024-03-06T00:05:39;19.30;;;13.93;;
85815;SDS011;76552;51.206;4.424;2024-03-06T00:05:45;18.90;;;14.00;;
85815;SDS011;76552;51.206;4.424;2024-03-06T00:05:50;19.40;;;13.93;;
85815;SDS011;76552;51.206;4.424;2024-03-06T00:05:55;19.40;;;13.98;;
85815;SDS011;76552;51.206;4.424;2024-03-06T00:06:01;19.60;;;13.87;;
85815;SDS011;76552;51.206;4.424;2024-03-06T00:06:06;20.07;;;14.00;;
85815;SDS011;76552;51.206;4.424;2024-03-06T00:06:11;20.38;;;13.93;;
85815;SDS011;76552;51.206;4.424;2024-03-06T00:06:16;20.47;;;13.90;;
85815;SDS011;76552;51.206;4.424;2024-03-06T00:06:22;20.07;;;14.03;;
85815;SDS011;76552;51.206;4.424;2024-03-06T00:06:27;21.43;;;14.13;;
85815;SDS011;76552;51.206;4.424;2024-03-06T00:06:32;21.70;;;14.15;;
85815;SDS011;76552;51.206;4.424;2024-03-06T00:06:38;22.20;;;14.17;;
85815;SDS011;76552;51.206;4.424;2024-03-06T00:06:43;21.53;;;14.10;;
85815;SDS011;76552;51.206;4.424;2024-03-06T00:06:48;21.73;;;13.98;;
85815;SDS011;76552;51.206;4.424;2024-03-06T00:06:56;21.13;;;13.93;;
85815;SDS011;76552;51.206;4.424;2024-03-06T00:07:03;20.63;;;13.93;;
85815;SDS011;76552;51.206;4.424;2024-03-06T00:07:08;20.27;;;13.98;;
85815;SDS011;76552;51.206;4.424;2024-03-06T00:07:13;20.80;;;14.00;;
85815;SDS011;76552;51.206;4.424;2024-03-06T00:07:19;20.00;;;13.97;;
85815;SDS011;76552;51.206;4.424;2024-03-06T00:07:24;19.40;;;13.90;;
85815;SDS011;76552;51.206;4.424;2024-03-06T00:07:29;18.55;;;13.90;;
85815;SDS011;76552;51.206;4.424;2024-03-06T00:07:35;17.93;;;13.77;;
85815;SDS011;76552;51.206;4.424;2024-03-06T00:07:40;17.65;;;13.88;;
85815;SDS011;76552;51.206;4.424;2024-03-06T00:07:45;17.87;;;14.00;;
85815;SDS011;76552;51.206;4.424;2024-03-06T00:07:51;18.17;;;14.00;;
85815;SDS011;76552;51.206;4.424;2024-03-06T00:07:56;18.80;;;13.90;;
85815;SDS011;76552;51.206;4.424;2024-03-06T00:08:01;19.30;;;13.90;;
85815;SDS011;76552;51.206;4.424;2024-03-06T00:08:08;19.38;;;13.82;;
85815;SDS011;76552;51.206;4.424;2024-03-06T00:08:14;19.00;;;13.77;;
85815;SDS011;76552;51.206;4.424;2024-03-06T00:08:19;18.67;;;13.63;;
85815;SDS011;76552;51.206;4.424;2024-03-06T00:08:24;18.77;;;13.60;;
85815;SDS011;76552;51.206;4.424;2024-03-06T00:08:30;18.23;;;13.50;;
85815;SDS011;76552;51.206;4.424;2024-03-06T00:08:35;18.17;;;13.60;;
85815;SDS011;76552;51.206;4.424;2024-03-06T00:08:42;18.17;;;13.70;;
85815;SDS011;76552;51.206;4.424;2024-03-06T00:08:47;18.52;;;13.80;;
85815;SDS011;76552;51.206;4.424;2024-03-06T00:08:52;18.73;;;13.87;;
85815;SDS011;76552;51.206;4.424;2024-03-06T00:08:58;19.40;;;13.80;;
85815;SDS011;76552;51.206;4.424;2024-03-06T00:09:03;19.83;;;13.80;;
85815;SDS011;76552;51.206;4.424;2024-03-06T00:09:08;20.05;;;13.93;;
85815;SDS011;76552;51.206;4.424;2024-03-06T00:09:14;20.40;;;13.87;;
85815;SDS011;76552;51.206;4.424;2024-03-06T00:09:19;20.27;;;13.80;;
85815;SDS011;76552;51.206;4.424;2024-03-06T00:09:24;19.80;;;13.82;;
85815;SDS011;76552;51.206;4.424;2024-03-06T00:09:32;19.02;;;13.74;;
85815;SDS011;76552;51.206;4.424;2024-03-06T00:09:37;18.48;;;13.57;;
85815;SDS011;76552;51.206;4.424;2024-03-06T00:09:42;18.00;;;13.53;;
85815;SDS011;76552;51.206;4.424;2024-03-06T00:09:48;17.93;;;13.63;;
85815;SDS011;76552;51.206;4.424;2024-03-06T00:09:53;18.15;;;13.65;;
85815;SDS011;76552;51.206;4.424;2024-03-06T00:09:58;19.00;;;13.73;;
85815;SDS011;76552;51.206;4.424;2024-03-06T00:10:04;19.67;;;13.90;;
85815;SDS011;76552;51.206;4.424;2024-03-06T00:10:12;20.41;;;14.13;;
85815;SDS011;76552;51.206;4.424;2024-03-06T00:10:17;20.53;;;14.23;;
85815;SDS011;76552;51.206;4.424;2024-03-06T00:10:23;20.30;;;14.10;;
85815;SDS011;76552;51.206;4.424;2024-03-06T00:10:28;20.20;;;13.95;;
85815;SDS011;76552;51.206;4.424;2024-03-06T00:10:33;19.20;;;13.63;;
85815;SDS011;76552;51.206;4.424;2024-03-06T00:10:40;19.60;;;13.50;;
85815;SDS011;76552;51.206;4.424;2024-03-06T00:10:45;19.60;;;13.33;;
85815;SDS011;76552;51.206;4.424;2024-03-06T00:10:52;19.65;;;13.38;;
85815;SDS011;76552;51.206;4.424;2024-03-06T00:10:57;20.25;;;13.63;;
85815;SDS011;76552;51.206;4.424;2024-03-06T00:11:03;20.50;;;13.73;;
85815;SDS011;76552;51.206;4.424;2024-03-06T00:11:08;19.63;;;13.73;;
85815;SDS011;76552;51.206;4.424;2024-03-06T00:11:13;19.13;;;13.70;;
85815;SDS011;76552;51.206;4.424;2024-03-06T00:11:18;19.43;;;13.60;;
85815;SDS011;76552;51.206;4.424;2024-03-06T00:11:24;18.97;;;13.50;;
85815;SDS011;76552;51.206;4.424;2024-03-06T00:11:29;18.38;;;13.38;;
85815;SDS011;76552;51.206;4.424;2024-03-06T00:11:35;19.00;;;13.57;;
85815;SDS011;76552;51.206;4.424;2024-03-06T00:11:41;19.70;;;13.52;;
85815;SDS011;76552;51.206;4.424;2024-03-06T00:11:46;20.33;;;13.73;;
85815;SDS011;76552;51.206;4.424;2024-03-06T00:11:51;20.23;;;13.87;;
85815;SDS011;76552;51.206;4.424;2024-03-06T00:11:57;19.77;;;13.88;;
85815;SDS011;76552;51.206;4.424;2024-03-06T00:12:02;20.13;;;13.90;;
85815;SDS011;76552;51.206;4.424;2024-03-06T00:12:08;19.83;;;13.97;;
85815;SDS011;76552;51.206;4.424;2024-03-06T00:12:13;19.60;;;13.80;;
85815;SDS011;76552;51.206;4.424;2024-03-06T00:12:18;18.97;;;13.63;;
85815;SDS011;76552;51.206;4.424;2024-03-06T00:12:24;19.40;;;13.77;;
85815;SDS011;76552;51.206;4.424;2024-03-06T00:12:29;19.50;;;13.80;;
85815;SDS011;76552;51.206;4.424;2024-03-06T00:12:35;18.97;;;13.90;;
85815;SDS011;76552;51.206;4.424;2024-03-06T00:12:40;19.25;;;13.88;;
85815;SDS011;76552;51.206;4.424;2024-03-06T00:12:45;19.43;;;13.90;;
85815;SDS011;76552;51.206;4.424;2024-03-06T00:12:51;19.20;;;13.57;;
85815;SDS011;76552;51.206;4.424;2024-03-06T00:12:56;19.98;;;13.40;;
85815;SDS011;76552;51.206;4.424;2024-03-06T00:13:01;19.70;;;13.37;;
85815;SDS011;76552;51.206;4.424;2024-03-06T00:13:07;19.23;;;13.10;;
85815;SDS011;76552;51.206;4.424;2024-03-06T00:13:13;18.73;;;12.98;;
85815;SDS011;76552;51.206;4.424;2024-03-06T00:13:18;19.48;;;13.30;;
85815;SDS011;76552;51.206;4.424;2024-03-06T00:13:23;19.60;;;13.40;;
85815;SDS011;76552;51.206;4.424;2024-03-06T00:13:29;19.52;;;13.40;;
85815;SDS011;76552;51.206;4.424;2024-03-06T00:13:34;19.97;;;13.47;;
85815;SDS011;76552;51.206;4.424;2024-03-06T00:13:39;20.70;;;13.47;;
85815;SDS011;76552;51.206;4.424;2024-03-06T00:13:45;20.20;;;13.30;;
85815;SDS011;76552;51.206;4.424;2024-03-06T00:13:52;19.05;;;13.27;;
85815;SDS011;76552;51.206;4.424;2024-03-06T00:13:57;18.27;;;13.13;;
85815;SDS011;76552;51.206;4.424;2024-03-06T00:14:03;18.02;;;13.00;;
85815;SDS011;76552;51.206;4.424;2024-03-06T00:14:10;17.07;;;13.10;;
85815;SDS011;76552;51.206;4.424;2024-03-06T00:14:17;17.98;;;13.16;;
85815;SDS011;76552;51.206;4.424;2024-03-06T00:14:23;18.80;;;13.20;;
85815;SDS011;76552;51.206;4.424;2024-03-06T00:14:28;19.40;;;13.35;;
85815;SDS011;76552;51.206;4.424;2024-03-06T00:14:34;19.88;;;13.48;;
85815;SDS011;76552;51.206;4.424;2024-03-06T00:14:41;20.18;;;13.70;;
85815;SDS011;76552;51.206;4.424;2024-03-06T00:14:46;19.73;;;13.67;;
85815;SDS011;76552;51.206;4.424;2024-03-06T00:14:52;19.02;;;13.48;;
85815;SDS011;76552;51.206;4.424;2024-03-06T00:14:57;18.77;;;13.40;;
85815;SDS011;76552;51.206;4.424;2024-03-06T00:15:02;19.03;;;13.57;;
85815;SDS011;76552;51.206;4.424;2024-03-06T00:15:08;19.50;;;13.43;;
85815;SDS011;76552;51.206;4.424;2024-03-06T00:15:13;19.13;;;13.40;;
85815;SDS011;76552;51.206;4.424;2024-03-06T00:15:19;18.90;;;13.37;;
85815;SDS011;76552;51.206;4.424;2024-03-06T00:15:24;18.85;;;13.40;;
85815;SDS011;76552;51.206;4.424;2024-03-06T00:15:29;18.60;;;13.20;;
85815;SDS011;76552;51.206;4.424;2024-03-06T00:15:35;18.20;;;13.07;;
85815;SDS011;76552;51.206;4.424;2024-03-06T00:15:40;18.05;;;13.10;;
85815;SDS011;76552;51.206;4.424;2024-03-06T00:15:46;18.00;;;13.20;;
85815;SDS011;76552;51.206;4.424;2024-03-06T00:15:51;18.23;;;13.18;;
85815;SDS011;76552;51.206;4.424;2024-03-06T00:15:56;18.30;;;13.33;;
85815;SDS011;76552;51.206;4.424;2024-03-06T00:16:01;17.80;;;13.47;;
85815;SDS011;76552;51.206;4.424;2024-03-06T00:16:07;17.73;;;13.35;;
85815;SDS011;76552;51.206;4.424;2024-03-06T00:16:12;17.30;;;13.10;;
85815;SDS011;76552;51.206;4.424;2024-03-06T00:16:17;17.30;;;13.00;;
85815;SDS011;76552;51.206;4.424;2024-03-06T00:16:23;17.33;;;13.00;;
85815;SDS011;76552;51.206;4.424;2024-03-06T00:16:28;17.40;;;12.93;;
85815;SDS011;76552;51.206;4.424;2024-03-06T00:16:34;17.43;;;12.87;;
85815;SDS011;76552;51.206;4.424;2024-03-06T00:16:39;17.30;;;12.80;;
85815;SDS011;76552;51.206;4.424;2024-03-06T00:16:44;17.43;;;12.80;;
85815;SDS011;76552;51.206;4.424;2024-03-06T00:16:50;17.83;;;12.85;;
85815;SDS011;76552;51.206;4.424;2024-03-06T00:16:55;17.27;;;12.80;;
85815;SDS011;76552;51.206;4.424;2024-03-06T00:17:01;17.60;;;12.80;;
85815;SDS011;76552;51.206;4.424;2024-03-06T00:17:08;17.50;;;12.58;;
85815;SDS011;76552;51.206;4.424;2024-03-06T00:17:14;17.60;;;12.75;;
85815;SDS011;76552;51.206;4.424;2024-03-06T00:17:20;17.45;;;12.75;;
85815;SDS011;76552;51.206;4.424;2024-03-06T00:17:25;18.00;;;12.70;;
85815;SDS011;76552;51.206;4.424;2024-03-06T00:17:30;17.87;;;12.50;;
85815;SDS011;76552;51.206;4.424;2024-03-06T00:17:36;18.00;;;12.65;;
85815;SDS011;76552;51.206;4.424;2024-03-06T00:17:41;18.40;;;12.70;;
85815;SDS011;76552;51.206;4.424;2024-03-06T00:17:46;18.77;;;12.70;;
85815;SDS011;76552;51.206;4.424;2024-03-06T00:17:52;18.55;;;12.70;;
85815;SDS011;76552;51.206;4.424;2024-03-06T00:17:57;18.53;;;12.77;;
85815;SDS011;76552;51.206;4.424;2024-03-06T00:18:03;18.40;;;12.80;;
85815;SDS011;76552;51.206;4.424;2024-03-06T00:18:10;18.64;;;12.94;;
85815;SDS011;76552;51.206;4.424;2024-03-06T00:18:15;18.73;;;12.90;;
85815;SDS011;76552;51.206;4.424;2024-03-06T00:18:20;18.90;;;12.90;;
85815;SDS011;76552;51.206;4.424;2024-03-06T00:18:26;18.58;;;12.95;;
85815;SDS011;76552;51.206;4.424;2024-03-06T00:18:31;18.13;;;13.03;;
85815;SDS011;76552;51.206;4.424;2024-03-06T00:18:36;18.37;;;13.07;;
85815;SDS011;76552;51.206;4.424;2024-03-06T00:18:42;17.63;;;13.00;;
85815;SDS011;76552;51.206;4.424;2024-03-06T00:18:47;16.50;;;12.97;;
85815;SDS011;76552;51.206;4.424;2024-03-06T00:18:52;16.73;;;12.90;;
85815;SDS011;76552;51.206;4.424;2024-03-06T00:18:58;17.38;;;12.73;;
85815;SDS011;76552;51.206;4.424;2024-03-06T00:19:03;18.03;;;12.60;;
85815;SDS011;76552;51.206;4.424;2024-03-06T00:19:08;18.10;;;12.60;;
85815;SDS011;76552;51.206;4.424;2024-03-06T00:19:13;18.53;;;12.70;;
85815;SDS011;76552;51.206;4.424;2024-03-06T00:19:19;19.33;;;12.70;;
85815;SDS011;76552;51.206;4.424;2024-03-06T00:19:25;20.23;;;12.83;;
85815;SDS011;76552;51.206;4.424;2024-03-06T00:19:30;19.13;;;12.73;;
85815;SDS011;76552;51.206;4.424;2024-03-06T00:19:36;19.23;;;12.73;;
85815;SDS011;76552;51.206;4.424;2024-03-06T00:19:41;19.00;;;12.50;;
85815;SDS011;76552;51.206;4.424;2024-03-06T00:19:46;18.93;;;12.37;;
85815;SDS011;76552;51.206;4.424;2024-03-06T00:19:52;18.60;;;12.38;;
85815;SDS011;76552;51.206;4.424;2024-03-06T00:19:57;18.10;;;12.27;;
85815;SDS011;76552;51.206;4.424;2024-03-06T00:20:02;18.13;;;12.37;;
85815;SDS011;76552;51.206;4.424;2024-03-06T00:20:10;18.12;;;12.47;;
85815;SDS011;76552;51.206;4.424;2024-03-06T00:20:15;18.03;;;12.67;;
85815;SDS011;76552;51.206;4.424;2024-03-06T00:20:21;17.77;;;12.55;;
85815;SDS011;76552;51.206;4.424;2024-03-06T00:20:26;17.43;;;12.60;;
85815;SDS011;76552;51.206;4.424;2024-03-06T00:20:33;17.80;;;12.54;;
85815;SDS011;76552;51.206;4.424;2024-03-06T00:20:38;17.43;;;12.50;;
85815;SDS011;76552;51.206;4.424;2024-03-06T00:20:45;17.08;;;12.52;;
85815;SDS011;76552;51.206;4.424;2024-03-06T00:20:50;16.97;;;12.60;;
85815;SDS011;76552;51.206;4.424;2024-03-06T00:20:56;16.85;;;12.60;;
85815;SDS011;76552;51.206;4.424;2024-03-06T00:21:01;16.50;;;12.50;;
85815;SDS011;76552;51.206;4.424;2024-03-06T00:21:06;17.33;;;12.50;;
85815;SDS011;76552;51.206;4.424;2024-03-06T00:21:12;17.65;;;12.60;;
85815;SDS011;76552;51.206;4.424;2024-03-06T00:21:17;17.87;;;12.63;;
85815;SDS011;76552;51.206;4.424;2024-03-06T00:21:23;17.80;;;12.63;;
85815;SDS011;76552;51.206;4.424;2024-03-06T00:21:28;17.43;;;12.63;;
85815;SDS011;76552;51.206;4.424;2024-03-06T00:21:35;17.40;;;12.90;;
85815;SDS011;76552;51.206;4.424;2024-03-06T00:21:41;17.03;;;12.87;;
85815;SDS011;76552;51.206;4.424;2024-03-06T00:21:46;16.83;;;12.73;;
85815;SDS011;76552;51.206;4.424;2024-03-06T00:21:51;16.98;;;12.88;;
85815;SDS011;76552;51.206;4.424;2024-03-06T00:21:57;17.63;;;13.20;;
85815;SDS011;76552;51.206;4.424;2024-03-06T00:22:02;17.43;;;13.27;;
85815;SDS011;76552;51.206;4.424;2024-03-06T00:22:07;17.20;;;13.02;;
85815;SDS011;76552;51.206;4.424;2024-03-06T00:22:13;17.13;;;13.03;;
85815;SDS011;76552;51.206;4.424;2024-03-06T00:22:18;17.03;;;12.87;;
85815;SDS011;76552;51.206;4.424;2024-03-06T00:22:24;16.58;;;12.60;;
85815;SDS011;76552;51.206;4.424;2024-03-06T00:22:29;17.23;;;12.50;;
85815;SDS011;76552;51.206;4.424;2024-03-06T00:22:34;17.43;;;12.37;;
85815;SDS011;76552;51.206;4.424;2024-03-06T00:22:40;17.88;;;12.60;;
85815;SDS011;76552;51.206;4.424;2024-03-06T00:22:45;18.58;;;12.52;;
85815;SDS011;76552;51.206;4.424;2024-03-06T00:22:51;18.57;;;12.47;;
85815;SDS011;76552;51.206;4.424;2024-03-06T00:22:56;18.47;;;12.43;;
85815;SDS011;76552;51.206;4.424;2024-03-06T00:23:01;17.83;;;12.43;;
85815;SDS011;76552;51.206;4.424;2024-03-06T00:23:07;17.88;;;12.55;;
85815;SDS011;76552;51.206;4.424;2024-03-06T00:23:12;17.17;;;12.57;;
85815;SDS011;76552;51.206;4.424;2024-03-06T00:23:17;17.90;;;12.70;;
85815;SDS011;76552;51.206;4.424;2024-03-06T00:23:23;18.23;;;12.80;;
85815;SDS011;76552;51.206;4.424;2024-03-06T00:23:28;18.30;;;12.80;;
85815;SDS011;76552;51.206;4.424;2024-03-06T00:23:33;17.87;;;12.60;;
85815;SDS011;76552;51.206;4.424;2024-03-06T00:23:40;17.63;;;12.57;;
85815;SDS011;76552;51.206;4.424;2024-03-06T00:23:46;17.38;;;12.60;;
85815;SDS011;76552;51.206;4.424;2024-03-06T00:23:51;17.30;;;12.60;;
85815;SDS011;76552;51.206;4.424;2024-03-06T00:23:56;17.10;;;12.67;;
85815;SDS011;76552;51.206;4.424;2024-03-06T00:24:02;17.20;;;12.70;;
85815;SDS011;76552;51.206;4.424;2024-03-06T00:24:09;17.40;;;12.82;;
85815;SDS011;76552;51.206;4.424;2024-03-06T00:24:16;17.12;;;12.86;;
85815;SDS011;76552;51.206;4.424;2024-03-06T00:24:21;16.93;;;12.90;;
85815;SDS011;76552;51.206;4.424;2024-03-06T00:24:28;17.33;;;12.93;;
85815;SDS011;76552;51.206;4.424;2024-03-06T00:24:33;17.80;;;13.07;;
85815;SDS011;76552;51.206;4.424;2024-03-06T00:24:38;17.87;;;12.97;;
85815;SDS011;76552;51.206;4.424;2024-03-06T00:24:43;17.85;;;12.80;;
85815;SDS011;76552;51.206;4.424;2024-03-06T00:24:49;18.17;;;12.87;;
85815;SDS011;76552;51.206;4.424;2024-03-06T00:24:54;18.10;;;12.90;;
85815;SDS011;76552;51.206;4.424;2024-03-06T00:25:00;18.23;;;13.00;;
85815;SDS011;76552;51.206;4.424;2024-03-06T00:25:05;18.00;;;13.13;;
85815;SDS011;76552;51.206;4.424;2024-03-06T00:25:11;18.98;;;13.30;;
85815;SDS011;76552;51.206;4.424;2024-03-06T00:25:16;18.97;;;13.20;;
85815;SDS011;76552;51.206;4.424;2024-03-06T00:25:21;19.25;;;13.23;;
85815;SDS011;76552;51.206;4.424;2024-03-06T00:25:27;19.37;;;13.20;;
85815;SDS011;76552;51.206;4.424;2024-03-06T00:25:32;19.08;;;13.15;;
85815;SDS011;76552;51.206;4.424;2024-03-06T00:25:39;18.77;;;12.93;;
85815;SDS011;76552;51.206;4.424;2024-03-06T00:25:44;18.30;;;12.90;;
85815;SDS011;76552;51.206;4.424;2024-03-06T00:25:50;18.07;;;12.87;;
85815;SDS011;76552;51.206;4.424;2024-03-06T00:25:55;17.27;;;12.63;;
85815;SDS011;76552;51.206;4.424;2024-03-06T00:26:03;17.00;;;12.47;;
85815;SDS011;76552;51.206;4.424;2024-03-06T00:26:09;16.58;;;12.43;;
85815;SDS011;76552;51.206;4.424;2024-03-06T00:26:15;16.55;;;12.60;;
85815;SDS011;76552;51.206;4.424;2024-03-06T00:26:20;17.10;;;12.57;;
85815;SDS011;76552;51.206;4.424;2024-03-06T00:26:26;18.24;;;12.96;;
85815;SDS011;76552;51.206;4.424;2024-03-06T00:26:31;18.60;;;13.10;;
85815;SDS011;76552;51.206;4.424;2024-03-06T00:26:39;18.57;;;13.10;;
85815;SDS011;76552;51.206;4.424;2024-03-06T00:26:44;19.20;;;13.27;;
85815;SDS011;76552;51.206;4.424;2024-03-06T00:26:50;18.77;;;13.30;;
85815;SDS011;76552;51.206;4.424;2024-03-06T00:26:55;17.73;;;13.07;;
85815;SDS011;76552;51.206;4.424;2024-03-06T00:27:00;17.50;;;13.00;;
85815;SDS011;76552;51.206;4.424;2024-03-06T00:27:06;17.65;;;13.15;;
85815;SDS011;76552;51.206;4.424;2024-03-06T00:27:13;17.30;;;13.27;;
85815;SDS011;76552;51.206;4.424;2024-03-06T00:27:18;17.08;;;13.10;;
85815;SDS011;76552;51.206;4.424;2024-03-06T00:27:23;17.45;;;13.20;;
85815;SDS011;76552;51.206;4.424;2024-03-06T00:27:29;18.10;;;13.17;;
85815;SDS011;76552;51.206;4.424;2024-03-06T00:27:34;18.83;;;13.10;;
85815;SDS011;76552;51.206;4.424;2024-03-06T00:27:39;19.37;;;13.17;;
85815;SDS011;76552;51.206;4.424;2024-03-06T00:27:44;19.65;;;13.07;;
85815;SDS011;76552;51.206;4.424;2024-03-06T00:27:50;19.83;;;13.27;;
85815;SDS011;76552;51.206;4.424;2024-03-06T00:27:55;20.30;;;13.33;;
85815;SDS011;76552;51.206;4.424;2024-03-06T00:28:00;20.17;;;13.50;;
85815;SDS011;76552;51.206;4.424;2024-03-06T00:28:05;19.37;;;13.30;;
85815;SDS011;76552;51.206;4.424;2024-03-06T00:28:11;18.73;;;13.30;;
85815;SDS011;76552;51.206;4.424;2024-03-06T00:28:16;18.60;;;13.33;;
85815;SDS011;76552;51.206;4.424;2024-03-06T00:28:21;18.38;;;13.23;;
85815;SDS011;76552;51.206;4.424;2024-03-06T00:28:27;18.03;;;13.17;;
85815;SDS011;76552;51.206;4.424;2024-03-06T00:28:32;17.97;;;13.23;;
85815;SDS011;76552;51.206;4.424;2024-03-06T00:28:38;18.48;;;13.45;;
85815;SDS011;76552;51.206;4.424;2024-03-06T00:28:43;18.57;;;13.37;;
85815;SDS011;76552;51.206;4.424;2024-03-06T00:28:48;18.92;;;13.50;;
85815;SDS011;76552;51.206;4.424;2024-03-06T00:28:53;18.90;;;13.40;;
85815;SDS011;76552;51.206;4.424;2024-03-06T00:28:59;18.80;;;13.20;;
85815;SDS011;76552;51.206;4.424;2024-03-06T00:29:04;18.65;;;13.10;;
85815;SDS011;76552;51.206;4.424;2024-03-06T00:29:10;18.53;;;13.00;;
85815;SDS011;76552;51.206;4.424;2024-03-06T00:29:16;18.17;;;13.03;;
85815;SDS011;76552;51.206;4.424;2024-03-06T00:29:21;17.88;;;13.10;;
85815;SDS011;76552;51.206;4.424;2024-03-06T00:29:26;17.30;;;13.03;;
85815;SDS011;76552;51.206;4.424;2024-03-06T00:29:32;17.43;;;13.17;;
85815;SDS011;76552;51.206;4.424;2024-03-06T00:29:37;16.93;;;13.27;;
85815;SDS011;76552;51.206;4.424;2024-03-06T00:29:43;17.38;;;13.25;;
85815;SDS011;76552;51.206;4.424;2024-03-06T00:29:48;17.55;;;13.13;;
85815;SDS011;76552;51.206;4.424;2024-03-06T00:29:53;17.47;;;13.13;;
85815;SDS011;76552;51.206;4.424;2024-03-06T00:29:59;17.70;;;13.20;;
85815;SDS011;76552;51.206;4.424;2024-03-06T00:30:04;17.97;;;13.30;;
85815;SDS011;76552;51.206;4.424;2024-03-06T00:30:10;18.05;;;13.10;;
85815;SDS011;76552;51.206;4.424;2024-03-06T00:30:15;18.05;;;13.15;;
85815;SDS011;76552;51.206;4.424;2024-03-06T00:30:21;17.90;;;13.17;;
85815;SDS011;76552;51.206;4.424;2024-03-06T00:30:26;17.92;;;13.32;;
85815;SDS011;76552;51.206;4.424;2024-03-06T00:30:32;18.00;;;13.37;;
85815;SDS011;76552;51.206;4.424;2024-03-06T00:30:37;17.65;;;13.18;;
85815;SDS011;76552;51.206;4.424;2024-03-06T00:30:42;17.20;;;13.20;;
85815;SDS011;76552;51.206;4.424;2024-03-06T00:30:48;16.70;;;13.10;;
85815;SDS011;76552;51.206;4.424;2024-03-06T00:30:53;17.00;;;13.10;;
85815;SDS011;76552;51.206;4.424;2024-03-06T00:30:58;16.43;;;12.97;;
85815;SDS011;76552;51.206;4.424;2024-03-06T00:31:06;16.57;;;13.00;;
85815;SDS011;76552;51.206;4.424;2024-03-06T00:31:12;16.55;;;12.88;;
85815;SDS011;76552;51.206;4.424;2024-03-06T00:31:17;16.73;;;12.90;;
85815;SDS011;76552;51.206;4.424;2024-03-06T00:31:23;16.57;;;12.83;;
85815;SDS011;76552;51.206;4.424;2024-03-06T00:31:28;16.88;;;12.90;;
85815;SDS011;76552;51.206;4.424;2024-03-06T00:31:33;17.17;;;13.03;;
85815;SDS011;76552;51.206;4.424;2024-03-06T00:31:42;17.60;;;13.03;;
85815;SDS011;76552;51.206;4.424;2024-03-06T00:31:47;18.13;;;13.16;;
85815;SDS011;76552;51.206;4.424;2024-03-06T00:31:53;18.73;;;13.47;;
85815;SDS011;76552;51.206;4.424;2024-03-06T00:31:58;18.75;;;13.27;;
85815;SDS011;76552;51.206;4.424;2024-03-06T00:32:03;18.27;;;13.23;;
85815;SDS011;76552;51.206;4.424;2024-03-06T00:32:09;18.40;;;13.60;;
85815;SDS011;76552;51.206;4.424;2024-03-06T00:32:14;18.05;;;13.55;;
85815;SDS011;76552;51.206;4.424;2024-03-06T00:32:19;17.90;;;13.40;;